Time;durP1;ratioP1;P1;durP2;ratioP2;P2;SDS_P1;SDS_P2;PMS_P1;PMS_P2;Temp;Humidity;BMP_temperature;BMP_pressure;BME280_temperature;BME280_humidity;BME280_pressure;Samples;Min_cycle;Max_cycle;Signal;HPM_P1;HPM_P2
2021/08/03 00:00:20;;;;;;;10.27;3.85;;;;;;;;;;5056460;28;20591;-64
2021/08/03 00:02:46;;;;;;;7.68;3.10;;;;;;;;;;5050643;28;20060;-64
2021/08/03 00:05:17;;;;;;;6.40;3.55;;;;;;;;;;5051172;28;20029;-64
2021/08/03 00:07:44;;;;;;;7.63;3.35;;;;;;;;;;5051972;28;20025;-64
2021/08/03 00:10:10;;;;;;;7.57;3.88;;;;;;;;;;5053960;28;20033;-65
2021/08/03 00:12:37;;;;;;;6.85;3.00;;;;;;;;;;5050996;28;20519;-64
2021/08/03 00:15:03;;;;;;;10.57;3.50;;;;;;;;;;5051154;28;20033;-65
2021/08/03 00:17:30;;;;;;;8.32;3.40;;;;;;;;;;5051212;28;20024;-65
2021/08/03 00:19:56;;;;;;;9.13;3.83;;;;;;;;;;5053547;28;20039;-64
2021/08/03 00:22:23;;;;;;;8.65;3.38;;;;;;;;;;5051264;28;20112;-65
2021/08/03 00:24:49;;;;;;;9.25;4.18;;;;;;;;;;5046184;28;20029;-64
2021/08/03 00:27:15;;;;;;;8.73;3.45;;;;;;;;;;5053104;28;20041;-64
2021/08/03 00:29:41;;;;;;;7.28;2.95;;;;;;;;;;5051077;28;20040;-65
2021/08/03 00:32:08;;;;;;;7.47;3.33;;;;;;;;;;5065284;28;20048;-64
2021/08/03 00:34:37;;;;;;;7.22;3.58;;;;;;;;;;5057441;28;20037;-64
2021/08/03 00:37:06;;;;;;;8.25;3.28;;;;;;;;;;5051429;28;20512;-64
2021/08/03 00:39:32;;;;;;;7.93;3.85;;;;;;;;;;5052040;28;20403;-64
2021/08/03 00:42:02;;;;;;;20.70;5.28;;;;;;;;;;5060146;28;20074;-64
2021/08/03 00:44:42;;;;;;;9.10;4.25;;;;;;;;;;5059885;28;20085;-64
2021/08/03 00:47:09;;;;;;;8.02;3.67;;;;;;;;;;5055383;28;20048;-65
2021/08/03 00:49:35;;;;;;;10.65;4.10;;;;;;;;;;5052930;28;20036;-65
2021/08/03 00:52:02;;;;;;;7.25;3.72;;;;;;;;;;5050918;28;20036;-64
2021/08/03 00:54:28;;;;;;;10.43;3.55;;;;;;;;;;5050695;28;20025;-64
2021/08/03 00:56:54;;;;;;;8.60;4.10;;;;;;;;;;5051973;28;20039;-64
2021/08/03 00:59:20;;;;;;;7.22;4.13;;;;;;;;;;5055065;28;20041;-64
2021/08/03 01:01:46;;;;;;;12.30;4.88;;;;;;;;;;5051301;28;20048;-64
2021/08/03 01:04:14;;;;;;;10.95;3.92;;;;;;;;;;5049376;28;20152;-64
2021/08/03 01:06:44;;;;;;;6.07;3.55;;;;;;;;;;5051721;28;20021;-65
2021/08/03 01:09:18;;;;;;;10.90;4.15;;;;;;;;;;5054102;28;21573;-64
2021/08/03 01:11:44;;;;;;;11.15;4.05;;;;;;;;;;5053478;28;20112;-64
2021/08/03 01:14:13;;;;;;;7.30;3.45;;;;;;;;;;5048402;28;20083;-65
2021/08/03 01:16:49;;;;;;;8.07;3.95;;;;;;;;;;5058146;28;20031;-65
2021/08/03 01:19:34;;;;;;;7.60;3.65;;;;;;;;;;5043359;28;20036;-64
2021/08/03 01:22:09;;;;;;;8.50;3.50;;;;;;;;;;5049793;28;20021;-65
2021/08/03 01:24:35;;;;;;;8.15;3.83;;;;;;;;;;5046996;28;20033;-64
2021/08/03 01:27:04;;;;;;;6.90;3.40;;;;;;;;;;5058961;28;20029;-65
2021/08/03 01:29:31;;;;;;;7.63;3.33;;;;;;;;;;5055434;28;20029;-64
2021/08/03 01:32:00;;;;;;;8.95;3.70;;;;;;;;;;5056695;28;20025;-64
2021/08/03 01:34:27;;;;;;;6.78;3.03;;;;;;;;;;5047525;28;20520;-65
2021/08/03 01:36:55;;;;;;;7.32;3.05;;;;;;;;;;5054573;28;20058;-65
2021/08/03 01:39:24;;;;;;;6.43;2.88;;;;;;;;;;5048563;28;20040;-65
2021/08/03 01:41:52;;;;;;;7.00;3.60;;;;;;;;;;5050151;28;20048;-64
2021/08/03 01:44:18;;;;;;;11.27;3.63;;;;;;;;;;5049499;28;20025;-65
2021/08/03 01:46:45;;;;;;;6.35;3.28;;;;;;;;;;5050953;28;20025;-65
2021/08/03 01:49:13;;;;;;;6.40;3.03;;;;;;;;;;5050099;28;20070;-65
2021/08/03 01:51:41;;;;;;;6.43;3.50;;;;;;;;;;5050020;28;20619;-65
2021/08/03 01:54:07;;;;;;;4.88;2.80;;;;;;;;;;5047392;28;20055;-65
2021/08/03 01:56:35;;;;;;;7.18;3.72;;;;;;;;;;5052748;28;20569;-65
2021/08/03 01:59:01;;;;;;;8.18;3.05;;;;;;;;;;5056439;28;20033;-65
2021/08/03 02:01:29;;;;;;;7.57;3.20;;;;;;;;;;5054122;28;20096;-64
2021/08/03 02:03:55;;;;;;;6.35;3.05;;;;;;;;;;5071009;28;20040;-65
2021/08/03 02:06:24;;;;;;;7.50;3.20;;;;;;;;;;5052152;28;20021;-64
2021/08/03 02:08:50;;;;;;;6.03;3.20;;;;;;;;;;5054487;28;20025;-65
2021/08/03 02:11:17;;;;;;;8.00;3.40;;;;;;;;;;5047552;28;20099;-64
2021/08/03 02:13:45;;;;;;;7.70;3.08;;;;;;;;;;5053338;28;20028;-65
2021/08/03 02:16:11;;;;;;;8.38;2.97;;;;;;;;;;5063443;28;20029;-65
2021/08/03 02:18:37;;;;;;;8.25;3.78;;;;;;;;;;5058424;28;20107;-65
2021/08/03 02:21:03;;;;;;;7.32;3.55;;;;;;;;;;5054169;28;20159;-65
2021/08/03 02:23:29;;;;;;;6.18;3.28;;;;;;;;;;5053222;28;20042;-65
2021/08/03 02:25:55;;;;;;;8.85;3.80;;;;;;;;;;5053270;28;20040;-65
2021/08/03 02:28:21;;;;;;;8.73;3.35;;;;;;;;;;5053607;28;20047;-65
2021/08/03 02:30:49;;;;;;;6.55;2.97;;;;;;;;;;5053549;28;20017;-65
2021/08/03 02:33:23;;;;;;;5.88;3.50;;;;;;;;;;5063807;28;20020;-65
2021/08/03 02:35:55;;;;;;;6.32;2.97;;;;;;;;;;5062578;28;20103;-65
2021/08/03 02:38:23;;;;;;;7.30;3.65;;;;;;;;;;5053640;28;20580;-65
2021/08/03 02:40:50;;;;;;;5.88;3.17;;;;;;;;;;5052710;28;20041;-65
2021/08/03 02:43:18;;;;;;;7.07;3.33;;;;;;;;;;5052120;28;20512;-65
2021/08/03 02:45:44;;;;;;;7.63;3.40;;;;;;;;;;5054187;28;20021;-65
2021/08/03 02:48:12;;;;;;;9.52;3.58;;;;;;;;;;5054959;28;20041;-64
2021/08/03 02:50:40;;;;;;;7.75;3.47;;;;;;;;;;5050706;28;20104;-65
2021/08/03 02:53:14;;;;;;;6.53;3.50;;;;;;;;;;5054428;28;20036;-65
2021/08/03 02:55:45;;;;;;;6.30;3.97;;;;;;;;;;5052792;28;20029;-65
2021/08/03 02:58:15;;;;;;;7.07;3.40;;;;;;;;;;5050814;28;20104;-65
2021/08/03 03:00:41;;;;;;;7.65;2.83;;;;;;;;;;5054254;28;20055;-65
2021/08/03 03:03:09;;;;;;;5.55;3.22;;;;;;;;;;5052423;28;20124;-65
2021/08/03 03:05:36;;;;;;;8.65;3.25;;;;;;;;;;5052559;28;20113;-65
2021/08/03 03:08:08;;;;;;;8.90;3.55;;;;;;;;;;5050150;28;20029;-65
2021/08/03 03:10:36;;;;;;;6.88;3.15;;;;;;;;;;5052233;28;20554;-65
2021/08/03 03:13:13;;;;;;;7.07;3.25;;;;;;;;;;5052131;28;20040;-65
2021/08/03 03:15:41;;;;;;;9.70;4.15;;;;;;;;;;5051011;28;20032;-65
2021/08/03 03:18:07;;;;;;;8.57;3.75;;;;;;;;;;5058948;28;20024;-65
2021/08/03 03:20:34;;;;;;;6.47;3.63;;;;;;;;;;5053825;28;20029;-65
2021/08/03 03:23:00;;;;;;;7.03;3.28;;;;;;;;;;5052509;28;20029;-65
2021/08/03 03:25:27;;;;;;;6.43;3.03;;;;;;;;;;5051285;28;20078;-65
2021/08/03 03:27:55;;;;;;;5.95;3.10;;;;;;;;;;5055861;28;20504;-65
2021/08/03 03:30:21;;;;;;;7.30;3.42;;;;;;;;;;5056666;28;20075;-65
2021/08/03 03:32:48;;;;;;;7.10;3.33;;;;;;;;;;5052387;28;20052;-65
2021/08/03 03:35:15;;;;;;;9.10;3.22;;;;;;;;;;5056822;28;20033;-65
2021/08/03 03:37:43;;;;;;;7.10;3.38;;;;;;;;;;5053748;28;20072;-65
2021/08/03 03:40:10;;;;;;;5.47;3.10;;;;;;;;;;5051555;28;20054;-65
2021/08/03 03:42:36;;;;;;;9.10;3.33;;;;;;;;;;5051636;28;20025;-65
2021/08/03 03:45:04;;;;;;;9.75;3.30;;;;;;;;;;5051285;28;20071;-64
2021/08/03 03:47:34;;;;;;;6.97;3.70;;;;;;;;;;5051519;28;20036;-65
2021/08/03 03:50:12;;;;;;;6.70;3.38;;;;;;;;;;5050051;28;20025;-65
2021/08/03 03:52:44;;;;;;;6.45;3.42;;;;;;;;;;5051477;28;20562;-65
2021/08/03 03:55:09;;;;;;;;;;;;;;;;;;5049412;28;20497;-64
2021/08/03 03:57:37;;;;;;;9.15;3.67;;;;;;;;;;5056155;28;19962;-65
2021/08/03 04:00:03;;;;;;;7.15;3.63;;;;;;;;;;5066873;28;20472;-65
2021/08/03 04:02:30;;;;;;;6.85;3.35;;;;;;;;;;5056176;28;20049;-64
2021/08/03 04:04:57;;;;;;;6.45;3.08;;;;;;;;;;5053038;28;20037;-65
2021/08/03 04:07:23;;;;;;;8.00;3.33;;;;;;;;;;5051695;28;20032;-65
2021/08/03 04:09:49;;;;;;;6.82;3.15;;;;;;;;;;5056854;28;20035;-65
2021/08/03 04:12:15;;;;;;;7.40;3.25;;;;;;;;;;5045888;28;20021;-65
2021/08/03 04:14:42;;;;;;;8.40;3.10;;;;;;;;;;5048776;28;20053;-65
2021/08/03 04:17:09;;;;;;;8.82;3.20;;;;;;;;;;5051526;28;20482;-65
2021/08/03 04:19:35;;;;;;;8.60;3.20;;;;;;;;;;5054521;28;20022;-65
2021/08/03 04:22:01;;;;;;;6.70;2.85;;;;;;;;;;5046133;28;20017;-65
2021/08/03 04:24:27;;;;;;;9.50;3.95;;;;;;;;;;5048244;28;20040;-65
2021/08/03 04:26:53;;;;;;;6.95;2.95;;;;;;;;;;5051218;28;20021;-65
2021/08/03 04:29:19;;;;;;;6.28;2.85;;;;;;;;;;5056718;28;20040;-65
2021/08/03 04:31:45;;;;;;;5.93;3.13;;;;;;;;;;5049267;28;20028;-65
2021/08/03 04:34:11;;;;;;;7.40;2.90;;;;;;;;;;5051511;28;20027;-65
2021/08/03 04:36:37;;;;;;;6.38;3.13;;;;;;;;;;5051216;28;20025;-65
2021/08/03 04:39:10;;;;;;;5.95;3.05;;;;;;;;;;5050516;28;20037;-65
2021/08/03 04:41:36;;;;;;;7.32;2.95;;;;;;;;;;5050799;28;20051;-65
2021/08/03 04:44:02;;;;;;;6.97;3.08;;;;;;;;;;5051068;28;20029;-65
2021/08/03 04:46:28;;;;;;;6.80;3.45;;;;;;;;;;5054712;28;20037;-65
2021/08/03 04:48:54;;;;;;;7.15;3.05;;;;;;;;;;5048978;28;20091;-65
2021/08/03 04:51:20;;;;;;;7.07;3.50;;;;;;;;;;5054509;28;20044;-65
2021/08/03 04:53:46;;;;;;;6.85;3.45;;;;;;;;;;5054810;28;20774;-65
2021/08/03 04:56:12;;;;;;;7.72;3.25;;;;;;;;;;5043586;28;20032;-65
2021/08/03 04:58:41;;;;;;;6.20;3.55;;;;;;;;;;5051053;28;20111;-65
2021/08/03 05:01:07;;;;;;;6.47;3.38;;;;;;;;;;5054452;28;20021;-65
2021/08/03 05:03:34;;;;;;;6.28;2.92;;;;;;;;;;5046918;28;20051;-65
2021/08/03 05:06:00;;;;;;;7.78;3.22;;;;;;;;;;5050225;28;20017;-65
2021/08/03 05:08:26;;;;;;;6.20;2.88;;;;;;;;;;5052050;28;20104;-65
2021/08/03 05:10:52;;;;;;;6.85;3.00;;;;;;;;;;5049741;28;20041;-65
2021/08/03 05:13:18;;;;;;;6.78;2.90;;;;;;;;;;5047907;28;20056;-65
2021/08/03 05:15:44;;;;;;;8.07;3.55;;;;;;;;;;5048973;28;20114;-65
2021/08/03 05:18:11;;;;;;;5.55;2.90;;;;;;;;;;5049716;28;20025;-65
2021/08/03 05:20:37;;;;;;;6.18;3.35;;;;;;;;;;5050515;28;20047;-65
2021/08/03 05:23:03;;;;;;;6.90;3.33;;;;;;;;;;5048958;28;20028;-65
2021/08/03 05:25:29;;;;;;;7.05;3.55;;;;;;;;;;5048349;28;20033;-65
2021/08/03 05:27:55;;;;;;;7.72;2.90;;;;;;;;;;5053468;28;20027;-65
2021/08/03 05:30:21;;;;;;;5.85;2.97;;;;;;;;;;5048044;28;20087;-65
2021/08/03 05:32:47;;;;;;;6.47;3.15;;;;;;;;;;5051383;28;20090;-65
2021/08/03 05:35:13;;;;;;;6.05;3.00;;;;;;;;;;5052792;28;20056;-65
2021/08/03 05:37:39;;;;;;;6.85;3.10;;;;;;;;;;5056226;28;20041;-65
2021/08/03 05:40:09;;;;;;;7.15;2.85;;;;;;;;;;5052813;28;20064;-65
2021/08/03 05:42:35;;;;;;;9.23;3.50;;;;;;;;;;5054328;28;20025;-65
2021/08/03 05:45:01;;;;;;;5.82;3.08;;;;;;;;;;5050534;28;20021;-65
2021/08/03 05:47:27;;;;;;;6.63;3.88;;;;;;;;;;5052467;28;20033;-65
2021/08/03 05:49:53;;;;;;;9.23;3.67;;;;;;;;;;5053903;28;20030;-65
2021/08/03 05:52:19;;;;;;;12.38;3.40;;;;;;;;;;5052282;28;20070;-65
2021/08/03 05:54:45;;;;;;;6.63;3.60;;;;;;;;;;5050854;28;20029;-65
2021/08/03 05:57:11;;;;;;;7.10;3.30;;;;;;;;;;5048500;28;20029;-65
2021/08/03 05:59:37;;;;;;;8.50;3.47;;;;;;;;;;5053844;28;20021;-65
2021/08/03 06:02:03;;;;;;;10.02;3.60;;;;;;;;;;5053545;28;20017;-65
2021/08/03 06:04:29;;;;;;;7.68;3.20;;;;;;;;;;5050749;28;20036;-65
2021/08/03 06:06:56;;;;;;;9.00;3.13;;;;;;;;;;5051267;28;20029;-65
2021/08/03 06:09:24;;;;;;;7.30;3.50;;;;;;;;;;5051176;28;20021;-64
2021/08/03 06:11:50;;;;;;;9.75;3.55;;;;;;;;;;5053739;28;20489;-65
2021/08/03 06:14:23;;;;;;;8.00;4.00;;;;;;;;;;5052258;28;20075;-65
2021/08/03 06:16:53;;;;;;;8.18;3.38;;;;;;;;;;5051966;28;20025;-65
2021/08/03 06:19:19;;;;;;;10.13;2.90;;;;;;;;;;5052414;28;20048;-65
2021/08/03 06:21:46;;;;;;;10.48;3.30;;;;;;;;;;5048370;28;20028;-65
2021/08/03 06:24:15;;;;;;;10.70;3.40;;;;;;;;;;5050917;28;20029;-64
2021/08/03 06:26:43;;;;;;;8.93;2.88;;;;;;;;;;5053180;28;20990;-65
2021/08/03 06:29:09;;;;;;;8.45;2.88;;;;;;;;;;5052740;28;20041;-65
2021/08/03 06:31:35;;;;;;;5.57;2.28;;;;;;;;;;5053797;28;20497;-64
2021/08/03 06:34:02;;;;;;;5.40;2.20;;;;;;;;;;5051439;28;20033;-65
2021/08/03 06:36:28;;;;;;;8.63;2.40;;;;;;;;;;5053068;28;20025;-64
2021/08/03 06:38:54;;;;;;;7.03;2.97;;;;;;;;;;5048974;28;20024;-64
2021/08/03 06:41:29;;;;;;;8.13;2.70;;;;;;;;;;5051221;28;20059;-65
2021/08/03 06:44:07;;;;;;;9.18;2.75;;;;;;;;;;5050261;28;20029;-64
2021/08/03 06:46:35;;;;;;;7.03;2.22;;;;;;;;;;5051795;28;20033;-64
2021/08/03 06:49:07;;;;;;;8.57;2.08;;;;;;;;;;5051725;28;20029;-64
2021/08/03 06:51:35;;;;;;;10.50;2.15;;;;;;;;;;5054359;28;20029;-65
2021/08/03 06:54:03;;;;;;;11.02;3.00;;;;;;;;;;5051040;28;20037;-63
2021/08/03 06:56:32;;;;;;;6.95;2.53;;;;;;;;;;5048936;28;20045;-64
2021/08/03 06:59:04;;;;;;;8.45;2.00;;;;;;;;;;5050993;28;20021;-65
2021/08/03 07:01:39;;;;;;;6.75;2.22;;;;;;;;;;5050619;28;20025;-65
2021/08/03 07:04:05;;;;;;;3.90;1.80;;;;;;;;;;5048274;28;20517;-64
2021/08/03 07:06:36;;;;;;;8.15;2.83;;;;;;;;;;5050568;28;20025;-64
2021/08/03 07:09:06;;;;;;;9.88;2.40;;;;;;;;;;5050001;28;20029;-64
2021/08/03 07:11:33;;;;;;;6.93;2.33;;;;;;;;;;5050750;28;20025;-64
2021/08/03 07:13:59;;;;;;;6.18;2.38;;;;;;;;;;5046881;28;20039;-64
2021/08/03 07:16:27;;;;;;;7.88;2.78;;;;;;;;;;5051597;28;20509;-64
2021/08/03 07:18:54;;;;;;;10.35;2.78;;;;;;;;;;5047222;28;20029;-64
2021/08/03 07:21:21;;;;;;;8.57;3.05;;;;;;;;;;5051093;28;20455;-64
2021/08/03 07:23:47;;;;;;;7.88;2.72;;;;;;;;;;5048033;28;20036;-64
2021/08/03 07:26:14;;;;;;;11.80;2.22;;;;;;;;;;5049443;28;20036;-64
2021/08/03 07:28:40;;;;;;;8.77;2.65;;;;;;;;;;5049554;28;20104;-64
2021/08/03 07:31:06;;;;;;;7.70;2.50;;;;;;;;;;5050122;28;20056;-64
2021/08/03 07:33:32;;;;;;;7.95;2.38;;;;;;;;;;5049814;28;20021;-64
2021/08/03 07:35:58;;;;;;;7.00;2.53;;;;;;;;;;5049564;28;20037;-63
2021/08/03 07:38:24;;;;;;;11.85;2.25;;;;;;;;;;5012308;28;1125293;-64
2021/08/03 07:40:50;;;;;;;7.10;2.25;;;;;;;;;;5050646;28;20444;-63
2021/08/03 07:43:16;;;;;;;7.55;2.28;;;;;;;;;;5042063;28;20119;-64
2021/08/03 07:45:42;;;;;;;8.38;2.53;;;;;;;;;;5050953;28;20510;-63
2021/08/03 07:48:08;;;;;;;11.68;2.88;;;;;;;;;;5046985;28;20044;-62
2021/08/03 07:50:35;;;;;;;7.72;2.50;;;;;;;;;;5051083;28;20393;-64
2021/08/03 07:53:01;;;;;;;4.07;2.08;;;;;;;;;;5049734;28;20037;-63
2021/08/03 07:55:27;;;;;;;9.00;2.42;;;;;;;;;;5048220;28;20045;-63
2021/08/03 07:57:53;;;;;;;6.07;2.28;;;;;;;;;;5047846;28;20063;-63
2021/08/03 08:00:19;;;;;;;10.45;2.53;;;;;;;;;;5041755;28;20026;-65
2021/08/03 08:02:45;;;;;;;5.07;1.75;;;;;;;;;;5050389;28;20027;-64
2021/08/03 08:05:11;;;;;;;10.15;2.35;;;;;;;;;;5047350;28;20025;-64
2021/08/03 08:07:37;;;;;;;6.00;2.13;;;;;;;;;;5050087;28;20025;-65
2021/08/03 08:10:04;;;;;;;11.25;2.35;;;;;;;;;;5048188;28;20115;-64
2021/08/03 08:12:32;;;;;;;6.18;2.08;;;;;;;;;;5048001;28;20761;-63
2021/08/03 08:14:58;;;;;;;7.93;2.97;;;;;;;;;;5047688;28;20129;-63
2021/08/03 08:17:24;;;;;;;9.32;2.05;;;;;;;;;;5050030;28;20040;-64
2021/08/03 08:19:50;;;;;;;4.82;2.00;;;;;;;;;;5050372;28;20036;-63
2021/08/03 08:22:17;;;;;;;6.38;1.92;;;;;;;;;;5050370;28;20557;-64
2021/08/03 08:24:44;;;;;;;6.63;2.05;;;;;;;;;;5046168;28;20438;-64
2021/08/03 08:27:10;;;;;;;6.38;1.95;;;;;;;;;;5050639;28;20059;-64
2021/08/03 08:29:38;;;;;;;6.13;2.40;;;;;;;;;;5049775;28;20021;-64
2021/08/03 08:32:04;;;;;;;4.22;1.92;;;;;;;;;;5051266;28;20029;-63
2021/08/03 08:34:30;;;;;;;7.40;2.17;;;;;;;;;;5046111;28;20036;-63
2021/08/03 08:36:57;;;;;;;9.85;2.42;;;;;;;;;;5048878;28;20029;-64
2021/08/03 08:39:23;;;;;;;6.68;1.95;;;;;;;;;;5049313;28;20451;-64
2021/08/03 08:41:49;;;;;;;8.82;2.00;;;;;;;;;;5050196;28;20473;-66
2021/08/03 08:44:15;;;;;;;6.80;2.28;;;;;;;;;;5049339;28;20546;-64
2021/08/03 08:46:42;;;;;;;8.18;2.53;;;;;;;;;;5070752;28;20100;-64
2021/08/03 08:49:08;;;;;;;6.22;1.90;;;;;;;;;;5048387;28;20469;-63
2021/08/03 08:51:34;;;;;;;6.47;2.17;;;;;;;;;;5051035;28;20412;-64
2021/08/03 08:54:01;;;;;;;8.98;2.97;;;;;;;;;;5044170;28;20044;-63
2021/08/03 08:56:30;;;;;;;5.43;2.13;;;;;;;;;;5047332;28;20492;-63
2021/08/03 08:58:56;;;;;;;6.03;1.73;;;;;;;;;;5039207;28;20024;-63
2021/08/03 09:01:22;;;;;;;5.97;2.10;;;;;;;;;;5049641;28;20021;-64
2021/08/03 09:03:48;;;;;;;6.80;2.22;;;;;;;;;;5045819;28;20551;-63
2021/08/03 09:06:19;;;;;;;6.55;1.92;;;;;;;;;;5048477;28;20548;-63
2021/08/03 09:08:45;;;;;;;7.05;2.47;;;;;;;;;;5050698;28;20061;-63
2021/08/03 09:11:15;;;;;;;7.05;2.45;;;;;;;;;;5047216;28;20017;-63
2021/08/03 09:13:49;;;;;;;7.20;2.13;;;;;;;;;;5039421;28;20064;-63
2021/08/03 09:16:15;;;;;;;10.95;2.20;;;;;;;;;;5049194;28;20312;-64
2021/08/03 09:18:43;;;;;;;7.28;2.30;;;;;;;;;;5050765;28;20025;-64
2021/08/03 09:21:25;;;;;;;8.07;2.40;;;;;;;;;;5049641;28;20032;-64
2021/08/03 09:23:51;;;;;;;7.85;2.50;;;;;;;;;;5047679;28;20114;-64
2021/08/03 09:26:18;;;;;;;10.60;2.80;;;;;;;;;;5048813;28;20021;-63
2021/08/03 09:29:10;;;;;;;7.68;1.98;;;;;;;;;;5042238;28;20486;-63
2021/08/03 09:31:37;;;;;;;5.68;1.95;;;;;;;;;;5044933;28;20037;-64
2021/08/03 09:34:10;;;;;;;5.45;1.92;;;;;;;;;;5043225;28;20037;-64
2021/08/03 09:36:56;;;;;;;9.10;2.08;;;;;;;;;;5041477;28;20032;-64
2021/08/03 09:39:41;;;;;;;5.05;1.85;;;;;;;;;;5048168;28;20025;-64
2021/08/03 09:42:09;;;;;;;7.35;1.75;;;;;;;;;;5044655;28;20040;-64
2021/08/03 09:44:44;;;;;;;4.72;1.77;;;;;;;;;;5047012;28;20024;-64
2021/08/03 09:47:10;;;;;;;10.10;2.20;;;;;;;;;;5047144;28;20044;-65
2021/08/03 09:49:41;;;;;;;7.00;1.73;;;;;;;;;;5045370;28;20039;-64
2021/08/03 09:52:14;;;;;;;6.53;1.92;;;;;;;;;;5048643;28;20116;-64
2021/08/03 09:54:42;;;;;;;8.48;2.20;;;;;;;;;;5046009;28;20021;-64
2021/08/03 09:57:21;;;;;;;6.70;1.52;;;;;;;;;;5045532;28;20043;-64
2021/08/03 09:59:47;;;;;;;6.80;2.22;;;;;;;;;;5051448;28;20597;-64
2021/08/03 10:02:16;;;;;;;6.25;2.33;;;;;;;;;;5055665;28;20025;-64
2021/08/03 10:04:43;;;;;;;7.07;1.65;;;;;;;;;;5039034;28;20045;-64
2021/08/03 10:07:09;;;;;;;6.95;2.15;;;;;;;;;;5049788;28;20112;-65
2021/08/03 10:09:35;;;;;;;10.13;2.03;;;;;;;;;;5047809;28;20128;-62
2021/08/03 10:12:02;;;;;;;10.50;2.15;;;;;;;;;;5043789;28;20053;-64
2021/08/03 10:14:28;;;;;;;6.93;2.00;;;;;;;;;;5042955;28;20041;-63
2021/08/03 10:16:54;;;;;;;6.10;2.22;;;;;;;;;;5039501;28;20390;-63
2021/08/03 10:19:28;;;;;;;6.57;2.53;;;;;;;;;;5052901;28;20029;-64
2021/08/03 10:22:18;;;;;;;6.85;1.80;;;;;;;;;;5052137;28;20271;-64
2021/08/03 10:25:10;;;;;;;8.88;2.13;;;;;;;;;;5049554;28;20047;-65
2021/08/03 10:27:42;;;;;;;4.47;1.90;;;;;;;;;;5048987;28;20052;-64
2021/08/03 10:30:09;;;;;;;5.82;2.30;;;;;;;;;;5044814;28;20076;-63
2021/08/03 10:32:39;;;;;;;7.90;1.90;;;;;;;;;;5050669;28;20076;-63
2021/08/03 10:35:06;;;;;;;7.15;1.85;;;;;;;;;;5047996;28;20582;-64
2021/08/03 10:37:51;;;;;;;5.65;1.70;;;;;;;;;;5050519;28;20045;-63
2021/08/03 10:40:17;;;;;;;4.47;1.73;;;;;;;;;;5051947;28;20021;-64
2021/08/03 10:43:03;;;;;;;5.75;1.80;;;;;;;;;;5051621;28;20046;-64
2021/08/03 10:45:29;;;;;;;6.72;2.08;;;;;;;;;;5048481;28;20021;-65
2021/08/03 10:47:55;;;;;;;6.85;2.20;;;;;;;;;;5050778;28;20104;-63
2021/08/03 10:50:29;;;;;;;6.18;1.58;;;;;;;;;;5052625;28;20201;-64
2021/08/03 10:52:56;;;;;;;9.27;2.20;;;;;;;;;;5050273;28;20028;-63
2021/08/03 10:55:40;;;;;;;4.78;1.45;;;;;;;;;;5048126;28;20115;-64
2021/08/03 10:58:09;;;;;;;8.27;2.13;;;;;;;;;;5049146;28;20144;-64
2021/08/03 11:00:46;;;;;;;6.68;1.75;;;;;;;;;;5051328;28;20111;-63
2021/08/03 11:03:31;;;;;;;5.68;1.88;;;;;;;;;;5051981;28;20509;-63
2021/08/03 11:05:57;;;;;;;6.13;1.80;;;;;;;;;;5052029;28;20116;-63
2021/08/03 11:08:49;;;;;;;5.43;1.63;;;;;;;;;;5033076;28;20017;-64
2021/08/03 11:11:18;;;;;;;7.70;1.50;;;;;;;;;;5031314;28;20037;-63
2021/08/03 11:13:52;;;;;;;5.63;1.80;;;;;;;;;;5049595;28;20029;-63
2021/08/03 11:16:24;;;;;;;4.75;1.63;;;;;;;;;;5052725;28;20025;-64
2021/08/03 11:18:52;;;;;;;4.43;1.85;;;;;;;;;;5051545;28;20030;-64
2021/08/03 11:21:19;;;;;;;4.90;1.85;;;;;;;;;;5052604;28;20102;-64
2021/08/03 11:24:02;;;;;;;4.93;1.95;;;;;;;;;;5049487;28;20025;-64
2021/08/03 11:26:38;;;;;;;7.50;1.67;;;;;;;;;;5050894;28;20071;-65
2021/08/03 11:29:09;;;;;;;9.35;2.15;;;;;;;;;;5051445;28;20021;-64
2021/08/03 11:31:42;;;;;;;6.25;1.50;;;;;;;;;;5052077;28;20024;-64
2021/08/03 11:34:08;;;;;;;5.35;1.67;;;;;;;;;;5047436;28;20037;-64
2021/08/03 11:36:36;;;;;;;8.65;2.17;;;;;;;;;;5051976;28;20029;-63
2021/08/03 11:39:02;;;;;;;7.88;1.85;;;;;;;;;;5059147;28;20212;-64
2021/08/03 11:41:28;;;;;;;5.00;1.92;;;;;;;;;;5051435;28;20041;-63
2021/08/03 11:43:55;;;;;;;5.38;1.85;;;;;;;;;;5055008;28;20480;-64
2021/08/03 11:46:25;;;;;;;6.40;1.70;;;;;;;;;;5050492;28;20480;-64
2021/08/03 11:49:06;;;;;;;7.00;2.38;;;;;;;;;;5045378;28;20017;-63
2021/08/03 11:51:37;;;;;;;5.43;1.60;;;;;;;;;;5051641;28;20025;-64
2021/08/03 11:54:13;;;;;;;8.27;2.28;;;;;;;;;;5039995;28;20492;-65
2021/08/03 11:56:40;;;;;;;15.30;3.28;;;;;;;;;;5051768;28;20501;-63
2021/08/03 11:59:06;;;;;;;10.45;2.17;;;;;;;;;;5053583;28;20508;-63
2021/08/03 12:01:51;;;;;;;5.85;1.80;;;;;;;;;;5052714;28;20017;-65
2021/08/03 12:04:21;;;;;;;9.80;2.50;;;;;;;;;;5048103;28;20068;-64
2021/08/03 12:06:47;;;;;;;8.30;2.20;;;;;;;;;;5048445;28;20056;-64
2021/08/03 12:09:13;;;;;;;6.75;1.73;;;;;;;;;;5030407;28;20409;-63
2021/08/03 12:11:40;;;;;;;9.13;2.63;;;;;;;;;;5049941;28;20025;-63
2021/08/03 12:14:09;;;;;;;8.15;1.80;;;;;;;;;;5048697;28;20044;-63
2021/08/03 12:16:35;;;;;;;6.35;1.92;;;;;;;;;;5060647;28;20017;-62
2021/08/03 12:19:02;;;;;;;6.85;1.85;;;;;;;;;;5051484;28;20024;-63
2021/08/03 12:21:35;;;;;;;6.07;1.90;;;;;;;;;;5050056;28;20029;-63
2021/08/03 12:24:05;;;;;;;5.65;1.80;;;;;;;;;;5048182;28;20035;-63
2021/08/03 12:26:31;;;;;;;4.88;1.85;;;;;;;;;;5060337;28;20021;-63
2021/08/03 12:28:57;;;;;;;7.10;2.08;;;;;;;;;;5051537;28;20025;-63
2021/08/03 12:31:32;;;;;;;5.45;1.67;;;;;;;;;;5051691;28;20086;-63
2021/08/03 12:34:12;;;;;;;6.70;1.95;;;;;;;;;;5048096;28;20100;-62
2021/08/03 12:36:41;;;;;;;5.07;1.70;;;;;;;;;;5051371;28;20035;-62
2021/08/03 12:39:09;;;;;;;4.55;2.55;;;;;;;;;;5050762;28;20033;-64
2021/08/03 12:41:35;;;;;;;8.35;1.75;;;;;;;;;;5039922;28;20036;-62
2021/08/03 12:44:02;;;;;;;9.75;1.92;;;;;;;;;;5048378;28;20025;-63
2021/08/03 12:46:32;;;;;;;4.93;1.63;;;;;;;;;;5066290;28;20058;-63
2021/08/03 12:48:58;;;;;;;6.90;2.00;;;;;;;;;;5064629;28;20048;-63
2021/08/03 12:51:28;;;;;;;6.95;2.53;;;;;;;;;;5050552;28;20021;-63
2021/08/03 12:54:10;;;;;;;4.97;1.90;;;;;;;;;;5036316;28;20024;-63
2021/08/03 12:56:46;;;;;;;5.50;1.67;;;;;;;;;;5049332;28;20567;-62
2021/08/03 12:59:35;;;;;;;3.03;1.33;;;;;;;;;;5041301;28;20044;-62
2021/08/03 13:02:01;;;;;;;7.72;2.30;;;;;;;;;;5053519;28;20047;-62
2021/08/03 13:04:27;;;;;;;7.40;2.00;;;;;;;;;;5049033;28;20029;-63
2021/08/03 13:06:53;;;;;;;6.35;2.05;;;;;;;;;;5050847;28;20025;-63
2021/08/03 13:09:19;;;;;;;7.75;2.08;;;;;;;;;;5050406;28;20518;-63
2021/08/03 13:11:45;;;;;;;9.90;1.88;;;;;;;;;;5051042;28;20021;-63
2021/08/03 13:14:11;;;;;;;6.10;1.80;;;;;;;;;;5047446;28;20086;-63
2021/08/03 13:16:38;;;;;;;7.75;1.98;;;;;;;;;;5051284;28;20074;-63
2021/08/03 13:19:04;;;;;;;5.78;1.90;;;;;;;;;;5051070;28;20027;-62
2021/08/03 13:21:30;;;;;;;14.70;2.50;;;;;;;;;;5039496;28;20405;-62
2021/08/03 13:23:56;;;;;;;6.70;2.20;;;;;;;;;;5049064;28;20020;-62
2021/08/03 13:26:23;;;;;;;5.40;1.60;;;;;;;;;;5070653;28;20023;-63
2021/08/03 13:28:49;;;;;;;6.10;2.15;;;;;;;;;;5054949;28;20070;-63
2021/08/03 13:31:15;;;;;;;5.97;1.80;;;;;;;;;;5050929;28;20028;-62
2021/08/03 13:33:42;;;;;;;5.22;2.00;;;;;;;;;;5047282;28;20025;-62
2021/08/03 13:36:08;;;;;;;8.27;1.83;;;;;;;;;;5049162;28;20040;-62
2021/08/03 13:38:34;;;;;;;8.13;2.22;;;;;;;;;;5061224;28;20564;-62
2021/08/03 13:41:01;;;;;;;6.53;2.13;;;;;;;;;;5070303;28;20021;-62
2021/08/03 13:43:27;;;;;;;4.82;2.03;;;;;;;;;;5057099;28;20258;-63
2021/08/03 13:45:53;;;;;;;5.80;2.50;;;;;;;;;;5049052;28;20036;-62
2021/08/03 13:48:19;;;;;;;7.70;1.95;;;;;;;;;;5048947;28;20036;-63
2021/08/03 13:50:45;;;;;;;4.25;1.80;;;;;;;;;;5030299;28;20036;-62
2021/08/03 13:53:11;;;;;;;7.47;1.92;;;;;;;;;;5034849;28;20021;-62
2021/08/03 13:55:37;;;;;;;7.25;2.53;;;;;;;;;;5044463;28;20083;-62
2021/08/03 13:58:04;;;;;;;7.35;2.30;;;;;;;;;;5053123;28;20025;-63
2021/08/03 14:00:30;;;;;;;6.47;2.58;;;;;;;;;;5054389;28;20025;-63
2021/08/03 14:02:56;;;;;;;7.28;2.13;;;;;;;;;;5056003;28;20404;-62
2021/08/03 14:05:22;;;;;;;4.55;2.00;;;;;;;;;;5058060;28;20017;-63
2021/08/03 14:07:48;;;;;;;16.17;2.38;;;;;;;;;;5058025;28;20055;-63
2021/08/03 14:10:14;;;;;;;4.97;2.13;;;;;;;;;;5069281;28;20029;-63
2021/08/03 14:12:40;;;;;;;4.85;2.05;;;;;;;;;;5054090;28;20020;-62
2021/08/03 14:15:06;;;;;;;7.55;2.25;;;;;;;;;;5052594;28;20083;-62
2021/08/03 14:17:33;;;;;;;5.65;2.22;;;;;;;;;;5054208;28;20025;-63
2021/08/03 14:19:59;;;;;;;5.13;2.10;;;;;;;;;;5053942;28;20017;-62
2021/08/03 14:22:25;;;;;;;8.10;2.20;;;;;;;;;;5036359;28;20025;-62
2021/08/03 14:24:51;;;;;;;4.45;1.83;;;;;;;;;;5044833;28;20025;-62
2021/08/03 14:27:18;;;;;;;4.45;1.63;;;;;;;;;;5073890;28;20024;-62
2021/08/03 14:29:45;;;;;;;4.53;2.05;;;;;;;;;;5071582;28;20029;-62
2021/08/03 14:32:11;;;;;;;4.90;1.67;;;;;;;;;;5066590;28;20057;-62
2021/08/03 14:34:37;;;;;;;5.50;1.98;;;;;;;;;;5050325;28;20047;-62
2021/08/03 14:37:03;;;;;;;4.90;1.70;;;;;;;;;;5053603;28;20475;-62
2021/08/03 14:39:29;;;;;;;5.88;2.10;;;;;;;;;;5053479;28;20488;-62
2021/08/03 14:41:55;;;;;;;4.97;1.95;;;;;;;;;;5061217;28;20025;-62
2021/08/03 14:44:21;;;;;;;4.40;1.58;;;;;;;;;;5048737;28;20542;-62
2021/08/03 14:46:48;;;;;;;5.90;2.00;;;;;;;;;;5053767;28;20507;-62
2021/08/03 14:49:14;;;;;;;4.35;2.00;;;;;;;;;;5041605;28;20238;-62